• Join FlightAware (Why Join?)
  • Login
  • US Flag 
10:56PM EDT


 

Airport Tracker/Info


-or-


 

Live Flight TrackerFlight Track Log ✈ AAL1459 ✈ 13-May-2013 ✈ KORD - KRNO

Flight Track Log - Related Links

Times and Time Zones

All times are in EDT time to prevent confusion due to time zone crossing. See the AAL1459 flight status page for this flight to view local times or setup timezone preferences in your user account.

Time Position Orientation Groundspeed Altitude Reporting Facility
EDT Latitude Longitude Course Direction KTS MPH feet Rate Location/Type
07:19PM 41.9167 -87.9500 261° West 207 238 3,000  Level Chicago TRACON
07:21PM 41.9286 -88.3572 255° West  Level FlightAware Approximate
07:21PM 41.8789 -88.0822 249° West 249 287 8,400  Level Chicago Center
07:22PM 41.9116 -88.5103 261° West  Level FlightAware Approximate
07:22PM 41.8694 -88.1792 263° West 262 302 11,900  Level Chicago Center
07:23PM 41.8935 -88.6640 261° West  Level FlightAware Approximate
07:23PM 41.8597 -88.2931 263° West 301 346 13,600  Level Chicago Center
07:24PM 41.8756 -88.8178 261° West  Level FlightAware Approximate
07:24PM 41.8525 -88.4206 266° West 343 395 16,600  Level Chicago Center
07:25PM 41.8575 -88.9758 261° West  Level FlightAware Approximate
07:25PM 41.8461 -88.5519 266° West 355 409 19,100  Level Chicago Center
07:26PM 41.8389 -88.7172 267° West 370 426 21,900 2,220 Climbing Chicago Center
07:27PM 41.8308 -88.8622 266° West 390 449 23,800 1,740 Climbing Chicago Center
07:28PM 41.8244 -89.0072 267° West 393 452 25,600 1,500 Climbing Chicago Center
07:29PM 41.8136 -89.1561 264° West 403 464 27,000 1,140 Climbing Chicago Center
07:30PM 41.7964 -89.3125 262° West 424 488 28,000 720 Climbing Chicago Center
07:31PM 41.7764 -89.5028 262° West 434 499 28,600 840 Climbing Chicago Center
07:33PM 41.7608 -89.6417 262° West 435 501 29,800 1,140 Climbing Chicago Center
07:34PM 41.7400 -89.8347 262° West 438 504 31,000 1,140 Climbing Chicago Center
07:35PM 41.7203 -90.0011 261° West 452 520 32,200 960 Climbing Chicago Center
07:36PM 41.7008 -90.1661 261° West 453 521 33,100 960 Climbing Chicago Center
07:37PM 41.6806 -90.3358 261° West 464 534 34,300 1,080 Climbing Chicago Center
07:38PM 41.6614 -90.5008 261° West 455 524 35,400 780 Climbing Chicago Center
07:39PM 41.6403 -90.6692 261° West 446 513 36,000 240 Climbing Chicago Center
07:40PM 41.6211 -90.8331 261° West 449 517 36,000  Level Chicago Center
07:41PM 41.5958 -91.0303 260° West 450 518 36,000  Level Chicago Center
07:42PM 41.5753 -91.1944 261° West 452 520 36,000  Level Chicago Center
07:43PM 41.5547 -91.3575 260° West 449 517 36,000  Level Chicago Center
07:44PM 41.5333 -91.5200 260° West 448 516 36,000  Level Chicago Center
07:45PM 41.5128 -91.6825 260° West 448 516 36,000  Level Chicago Center
07:47PM 41.4708 -91.9983 260° West 437 503 36,000  Level Minneapolis Center
07:47PM 41.4656 -92.0394 260° West 446 513 36,000  Level Chicago Center
07:48PM 41.4439 -92.2039 260° West 453 521 36,000  Level Chicago Center
07:49PM 41.4200 -92.3653 259° West 451 519 36,000  Level Chicago Center
07:50PM 41.4011 -92.5592 263° West 464 534 36,000  Level Chicago Center
07:51PM 41.4092 -92.6875 275° West 446 513 36,000  Level Minneapolis Center
07:52PM 41.4206 -92.8819 275° West 443 510 36,000  Level Minneapolis Center
07:53PM 41.4306 -93.0444 275° West 445 512 36,000  Level Minneapolis Center
07:54PM 41.4406 -93.2050 275° West 443 510 36,000  Level Minneapolis Center
07:55PM 41.4494 -93.3675 274° West 444 511 36,000  Level Minneapolis Center
07:56PM 41.4586 -93.5281 274° West 440 506 36,000  Level Minneapolis Center
07:57PM 41.4708 -93.7242 275° West 443 510 36,000  Level Minneapolis Center
07:58PM 41.4772 -93.8878 273° West 445 512 36,000  Level Minneapolis Center
07:59PM 41.4886 -94.0461 276° West 443 510 36,000  Level Minneapolis Center
08:00PM 41.4975 -94.2078 274° West 442 509 36,000  Level Minneapolis Center
08:01PM 41.5039 -94.3753 273° West 442 509 36,000  Level Minneapolis Center
08:02PM 41.5122 -94.5389 274° West 442 509 36,000  Level Minneapolis Center
08:03PM 41.5203 -94.7028 274° West 444 511 36,000  Level Minneapolis Center
08:04PM 41.5267 -94.8672 273° West 443 510 36,000  Level Minneapolis Center
08:05PM 41.5364 -95.0633 274° West 442 509 36,000  Level Minneapolis Center
08:06PM 41.5422 -95.2281 273° West 445 512 36,000  Level Minneapolis Center
08:07PM 41.5506 -95.3922 274° West 445 512 36,000  Level Minneapolis Center
08:08PM 41.5564 -95.5556 273° West 444 511 36,000  Level Minneapolis Center
08:10PM 41.5619 -95.7239 273° West 448 516 36,000  Level Minneapolis Center
08:11PM 41.5681 -95.8903 273° West 449 517 36,000  Level Minneapolis Center
08:12PM 41.5756 -96.1244 273° West 452 520 36,000  Level Minneapolis Center
08:13PM 41.5811 -96.2908 273° West 450 518 36,000  Level Minneapolis Center
08:14PM 41.5872 -96.4458 273° West 451 519 36,000  Level Minneapolis Center
08:15PM 41.5917 -96.6100 272° West 446 513 36,000  Level Minneapolis Center
08:16PM 41.5956 -96.7744 272° West 445 512 36,000  Level Minneapolis Center
08:17PM 41.6017 -96.9714 272° West 444 511 36,000  Level Minneapolis Center
08:18PM 41.6067 -97.1353 272° West 443 510 36,000  Level Minneapolis Center
08:19PM 41.6097 -97.2997 271° West 444 511 36,000  Level Minneapolis Center
08:20PM 41.6136 -97.4628 272° West 442 509 36,000  Level Minneapolis Center
08:21PM 41.6178 -97.6261 272° West 441 507 36,000  Level Minneapolis Center
08:22PM 41.6203 -97.7908 271° West 442 509 36,000  Level Minneapolis Center
08:23PM 41.6236 -97.9542 272° West 441 507 36,000  Level Minneapolis Center
08:24PM 41.6281 -98.1300 272° West 440 506 36,000  Level Minneapolis Center
08:25PM 41.6297 -98.2939 271° West 442 509 36,000  Level Minneapolis Center
08:26PM 41.6322 -98.4939 271° West 449 517 36,000  Level Minneapolis Center
08:27PM 41.6347 -98.6611 271° West 453 521 36,000  Level Minneapolis Center
08:28PM 41.6364 -98.8278 271° West 453 521 36,000  Level Minneapolis Center
08:29PM 41.6378 -98.9942 271° West 452 520 36,000  Level Minneapolis Center
08:30PM 41.6394 -99.1606 271° West 451 519 36,100 360 Climbing Minneapolis Center
08:31PM 41.6400 -99.2275 271° West 449 517 36,500 900 Climbing Denver Center
08:32PM 41.6403 -99.3942 270° West 450 518 37,300 720 Climbing Denver Center
08:33PM 41.6411 -99.5606 270° West 450 518 38,000 300 Climbing Denver Center
08:34PM 41.6422 -99.7272 271° West 450 518 38,000  Level Denver Center
08:35PM 41.6414 -99.9058 270° West 453 521 38,000  Level Denver Center
08:36PM 41.6428 -100.0942 271° West 455 524 38,000  Level Denver Center
08:37PM 41.6414 -100.3067 270° West 451 519 38,000  Level Denver Center
08:38PM 41.6408 -100.4636 270° West 445 512 38,000  Level Denver Center
08:39PM 41.6403 -100.6214 270° West 445 512 38,000  Level Denver Center
08:40PM 41.6394 -100.8036 270° West 442 509 38,000  Level Denver Center
08:41PM 41.6378 -100.9600 269° West 442 509 38,000  Level Denver Center
08:42PM 41.6361 -101.1425 269° West 442 509 38,000  Level Denver Center
08:43PM 41.6339 -101.2992 269° West 442 509 38,000  Level Denver Center
08:44PM 41.6336 -101.4822 270° West 443 510 38,000  Level Denver Center
08:45PM 41.6308 -101.6406 269° West 446 513 38,000  Level Denver Center
08:46PM 41.6275 -101.8242 269° West 445 512 38,000  Level Denver Center
08:47PM 41.6242 -101.9825 268° West 447 514 38,000  Level Denver Center
08:48PM 41.6225 -102.1403 269° West 445 512 38,000  Level Denver Center
08:49PM 41.6183 -102.3242 268° West 445 512 38,000  Level Denver Center
08:50PM 41.6153 -102.4814 269° West 444 511 38,000  Level Denver Center
08:51PM 41.6094 -102.6678 268° West 441 507 38,000  Level Denver Center
08:52PM 41.6061 -102.8253 268° West 442 509 38,000  Level Denver Center
08:53PM 41.6031 -102.9817 269° West 442 509 38,000  Level Denver Center
08:54PM 41.5972 -103.1667 268° West 446 513 38,000  Level Denver Center
08:56PM 41.5919 -103.3253 268° West 446 513 38,000  Level Denver Center
08:57PM 41.5858 -103.5100 268° West 445 512 38,000  Level Denver Center
08:58PM 41.5831 -103.6661 269° West 442 509 38,000  Level Denver Center
08:59PM 41.5769 -103.8236 267° West 443 510 38,000  Level Denver Center
09:00PM 41.5700 -104.0092 267° West 446 513 38,000  Level Denver Center
09:01PM 41.5650 -104.1669 268° West 445 512 38,000  Level Denver Center
09:02PM 41.5583 -104.3522 267° West 448 516 38,000  Level Denver Center
09:03PM 41.5528 -104.5119 267° West 450 518 38,000  Level Denver Center
09:04PM 41.5447 -104.6972 267° West 448 516 38,000  Level Denver Center
09:05PM 41.5392 -104.8281 267° West 444 511 38,000  Level Denver Center
09:06PM 41.5308 -105.0128 267° West 446 513 38,000  Level Denver Center
09:07PM 41.5231 -105.1967 267° West 444 511 38,000  Level Denver Center
09:08PM 41.5158 -105.3547 267° West 445 512 38,000  Level Denver Center
09:09PM 41.5067 -105.5369 266° West 442 509 38,000  Level Denver Center
09:10PM 41.4997 -105.6936 267° West 442 509 38,000  Level Denver Center
09:11PM 41.4906 -105.8767 266° West 443 510 38,000  Level Denver Center
09:12PM 41.4831 -106.0342 266° West 444 511 38,000  Level Denver Center
09:13PM 41.4758 -106.1931 267° West 448 516 38,000  Level Denver Center
09:14PM 41.4636 -106.3758 265° West 445 512 38,000  Level Denver Center
09:15PM 41.4544 -106.5361 266° West 448 516 38,000  Level Denver Center
09:16PM 41.4456 -106.7208 266° West 448 516 38,000  Level Denver Center
09:17PM 41.4353 -106.8769 265° West 445 512 38,000  Level Denver Center
09:18PM 41.4239 -107.0597 265° West 444 511 38,000  Level Denver Center
09:19PM 41.4147 -107.2172 266° West 446 513 38,000  Level Denver Center
09:20PM 41.4058 -107.3731 266° West 443 510 38,000  Level Denver Center
09:21PM 41.3944 -107.5561 265° West 445 512 38,000  Level Denver Center
09:22PM 41.3839 -107.7128 265° West 445 512 38,000  Level Denver Center
09:23PM 41.3717 -107.8967 265° West 446 513 38,000  Level Denver Center
09:24PM 41.3606 -108.0533 265° West 443 510 38,000  Level Salt Lake Center
09:25PM 41.3475 -108.2333 265° West 439 505 38,000  Level Denver Center
09:26PM 41.3367 -108.3897 265° West 442 509 38,000  Level Denver Center
09:27PM 41.3253 -108.5442 264° West 440 506 38,000  Level Denver Center
09:28PM 41.3133 -108.6994 264° West 438 504 38,000  Level Salt Lake Center
09:29PM 41.2978 -108.8808 264° West 439 505 38,000  Level Salt Lake Center
09:30PM 41.2844 -109.0383 264° West 441 507 38,000  Level Salt Lake Center
09:31PM 41.2722 -109.1986 264° West 448 516 38,000  Level Salt Lake Center
09:32PM 41.2581 -109.3836 264° West 446 513 38,000  Level Salt Lake Center
09:33PM 41.2447 -109.5417 264° West 447 514 38,000  Level Salt Lake Center
09:34PM 41.2322 -109.6986 264° West 446 513 38,000  Level Salt Lake Center
09:35PM 41.2161 -109.8808 263° West 444 511 38,000  Level Salt Lake Center
09:37PM 41.2022 -110.0367 263° West 444 511 38,000  Level Salt Lake Center
09:38PM 41.1878 -110.2175 264° West 442 509 38,000  Level Salt Lake Center
09:39PM 41.1725 -110.3722 263° West 442 509 38,000  Level Salt Lake Center
09:40PM 41.1592 -110.5269 264° West 441 507 38,000  Level Salt Lake Center
09:41PM 41.1428 -110.7069 263° West 441 507 38,000  Level Salt Lake Center
09:42PM 41.1278 -110.8597 263° West 439 505 38,000  Level Salt Lake Center
09:43PM 41.1111 -111.0328 263° West 439 505 38,000  Level Salt Lake Center
09:44PM 41.0961 -111.1928 263° West 439 505 38,000  Level Salt Lake Center
09:45PM 41.0806 -111.3519 263° West 438 504 38,000  Level Salt Lake Center
09:46PM 41.0653 -111.5103 263° West 434 499 38,000  Level Salt Lake Center
09:47PM 41.0492 -111.6669 262° West 431 496 38,000  Level Salt Lake Center
09:48PM 41.0322 -111.8431 263° West 435 501 38,000  Level Salt Lake Center
09:49PM 41.0142 -112.0000 261° West 438 504 38,000  Level Salt Lake Center
09:51PM 40.9804 -112.2596 262° West  Level FlightAware Approximate
09:51PM 40.9811 -112.3136 262° West 430 495 38,000  Level Salt Lake Center
09:52PM 40.9639 -112.4703 262° West 432 497 38,000  Level Salt Lake Center
09:53PM 40.9469 -112.6261 262° West 429 494 38,000  Level Salt Lake Center
09:54PM 40.9258 -112.8128 262° West 429 494 38,000  Level Salt Lake Center
09:55PM 40.9086 -112.9672 262° West 426 490 38,000  Level Salt Lake Center
09:56PM 40.8911 -113.1222 262° West 427 491 38,000  Level Salt Lake Center
09:57PM 40.8739 -113.2772 262° West 427 491 38,000  Level Salt Lake Center
09:58PM 40.8553 -113.4303 261° West 425 489 38,000  Level Salt Lake Center
09:59PM 40.8375 -113.5833 261° West 424 488 38,000  Level Salt Lake Center
10:00PM 40.8192 -113.7361 261° West 422 486 38,000  Level Salt Lake Center
10:01PM 40.7986 -113.8900 260° West 426 490 38,000  Level Salt Lake Center
10:02PM 40.7772 -114.0736 261° West 423 487 38,000  Level Salt Lake Center
10:03PM 40.7583 -114.2281 261° West 427 491 38,000  Level Salt Lake Center
10:04PM 40.7392 -114.3808 261° West 424 488 38,000  Level Salt Lake Center
10:05PM 40.7206 -114.5333 261° West 423 487 38,000  Level Salt Lake Center
10:06PM 40.7011 -114.6869 261° West 425 489 38,000  Level Salt Lake Center
10:07PM 40.6797 -114.8436 260° West 424 488 38,000  Level Salt Lake Center
10:08PM 40.6597 -114.9872 260° West 419 482 38,000  Level Salt Lake Center
10:09PM 40.6383 -115.1569 261° West 421 484 38,000  Level Salt Lake Center
10:10PM 40.6156 -115.3017 258° West 421 484 38,000  Level Salt Lake Center
10:11PM 40.5922 -115.4694 260° West 420 483 38,000  Level Salt Lake Center
10:12PM 40.5731 -115.6153 260° West 422 486 38,000  Level Salt Lake Center
10:13PM 40.5497 -115.7850 260° West 424 488 38,000  Level Salt Lake Center
10:14PM 40.5292 -115.9303 260° West 422 486 38,000  Level Salt Lake Center
10:15PM 40.5089 -116.0767 260° West 424 488 38,000  Level Salt Lake Center
10:16PM 40.4853 -116.2447 260° West 421 484 38,000  Level Salt Lake Center
10:17PM 40.4647 -116.3908 260° West 423 487 38,000  Level Salt Lake Center
10:19PM 40.4400 -116.5569 259° West 417 480 38,000  Level Salt Lake Center
10:20PM 40.4192 -116.6994 259° West 415 478 38,000  Level Salt Lake Center
10:21PM 40.3953 -116.8572 259° West 419 482 38,000  Level Salt Lake Center
10:22PM 40.3744 -116.9997 259° West 419 482 38,000  Level Salt Lake Center
10:23PM 40.3494 -117.1667 259° West 419 482 38,000  Level Salt Lake Center
10:24PM 40.3275 -117.3089 259° West 417 480 38,000  Level Salt Lake Center
10:25PM 40.3014 -117.4736 258° West 414 476 38,000  Level Salt Lake Center
10:26PM 40.2794 -117.6153 259° West 415 478 38,000  Level Salt Lake Center
10:27PM 40.2578 -117.7575 259° West 418 481 38,000  Level Salt Lake Center
10:28PM 40.2364 -117.8969 259° West 418 481 38,000 -600 Level Oakland Center
10:29PM 40.2125 -118.0461 258° West 422 486 36,900 -2,100 Descending Oakland Center
10:30PM 40.1886 -118.1928 258° West 417 480 33,800 -3,180 Descending Oakland Center
10:31PM 40.1639 -118.3456 258° West 430 495 30,500 -2,880 Descending Oakland Center
10:32PM 40.1394 -118.4961 258° West 426 490 28,000 -2,400 Descending Oakland Center
10:33PM 40.1153 -118.6358 257° West 402 463 25,700 -2,280 Descending Oakland Center
10:34PM 40.0894 -118.7700 256° West 386 444 23,400 -2,400 Descending Oakland Center
10:35PM 40.0592 -118.9217 255° West 365 420 20,900 -2,340 Descending Oakland Center
10:36PM 40.0350 -119.0500 256° West 365 420 18,700 -1,920 Descending Oakland Center
10:37PM 40.0078 -119.1772 254° West 365 420 17,000 -1,860 Descending Oakland Center
10:38PM 39.9839 -119.2989 256° West 352 405 15,000 -1,980 Descending Oakland Center
10:39PM 39.9522 -119.4186 251° West 352 405 13,000 -1,680 Descending Oakland Center
10:40PM 39.8992 -119.5169 235° Southwest 335 386 11,700 -1,200 Descending Oakland Center
10:41PM 39.8494 -119.6067 234° Southwest 315 362 10,600 -900 Descending Oakland Center
10:42PM 39.8089 -119.6878 237° Southwest 281 323 9,900 -720 Descending Oakland Center
10:43PM 39.7661 -119.7478 227° Southwest 243 280 9,200 -840 Descending Oakland Center
10:44PM 39.7039 -119.7569 186° South 240 276 8,200 -780 Descending Oakland Center
10:45PM 39.6461 -119.7886 203° Southwest 226 260 7,700 -540 Descending Oakland Center